sensor_id;sensor_type;location;lat;lon;timestamp;P1;durP1;ratioP1;P2;durP2;ratioP2
27003;SDS011;14546;47.590;19.022;2023-02-03T00:00:44;10.57;;;4.10;;
27003;SDS011;14546;47.590;19.022;2023-02-03T00:03:10;9.05;;;3.60;;
27003;SDS011;14546;47.590;19.022;2023-02-03T00:05:36;10.00;;;4.35;;
27003;SDS011;14546;47.590;19.022;2023-02-03T00:08:04;9.48;;;4.10;;
27003;SDS011;14546;47.590;19.022;2023-02-03T00:10:31;12.18;;;3.05;;
27003;SDS011;14546;47.590;19.022;2023-02-03T00:12:57;6.80;;;3.83;;
27003;SDS011;14546;47.590;19.022;2023-02-03T00:15:23;8.07;;;3.92;;
27003;SDS011;14546;47.590;19.022;2023-02-03T00:17:50;11.15;;;4.15;;
27003;SDS011;14546;47.590;19.022;2023-02-03T00:20:16;9.85;;;4.43;;
27003;SDS011;14546;47.590;19.022;2023-02-03T00:22:43;10.18;;;3.95;;
27003;SDS011;14546;47.590;19.022;2023-02-03T00:25:09;9.75;;;4.45;;
27003;SDS011;14546;47.590;19.022;2023-02-03T00:27:35;10.60;;;4.00;;
27003;SDS011;14546;47.590;19.022;2023-02-03T00:30:01;8.57;;;4.22;;
27003;SDS011;14546;47.590;19.022;2023-02-03T00:32:27;9.57;;;4.28;;
27003;SDS011;14546;47.590;19.022;2023-02-03T00:34:53;9.57;;;4.00;;
27003;SDS011;14546;47.590;19.022;2023-02-03T00:37:19;7.80;;;3.63;;
27003;SDS011;14546;47.590;19.022;2023-02-03T00:39:47;10.30;;;4.15;;
27003;SDS011;14546;47.590;19.022;2023-02-03T00:42:13;8.48;;;3.58;;
27003;SDS011;14546;47.590;19.022;2023-02-03T00:44:39;11.85;;;4.45;;
27003;SDS011;14546;47.590;19.022;2023-02-03T00:47:05;10.98;;;4.00;;
27003;SDS011;14546;47.590;19.022;2023-02-03T00:49:31;13.95;;;4.10;;
27003;SDS011;14546;47.590;19.022;2023-02-03T00:51:57;9.82;;;4.13;;
27003;SDS011;14546;47.590;19.022;2023-02-03T00:54:23;11.10;;;4.63;;
27003;SDS011;14546;47.590;19.022;2023-02-03T00:56:49;9.65;;;4.18;;
27003;SDS011;14546;47.590;19.022;2023-02-03T00:59:15;9.35;;;3.80;;
27003;SDS011;14546;47.590;19.022;2023-02-03T01:01:41;8.05;;;3.88;;
27003;SDS011;14546;47.590;19.022;2023-02-03T01:04:07;7.95;;;3.72;;
27003;SDS011;14546;47.590;19.022;2023-02-03T01:06:33;6.70;;;3.58;;
27003;SDS011;14546;47.590;19.022;2023-02-03T01:09:02;10.18;;;3.85;;
27003;SDS011;14546;47.590;19.022;2023-02-03T01:11:28;12.25;;;4.15;;
27003;SDS011;14546;47.590;19.022;2023-02-03T01:13:55;9.73;;;4.05;;
27003;SDS011;14546;47.590;19.022;2023-02-03T01:16:23;8.27;;;4.00;;
27003;SDS011;14546;47.590;19.022;2023-02-03T01:18:49;6.30;;;3.53;;
27003;SDS011;14546;47.590;19.022;2023-02-03T01:21:16;7.88;;;3.47;;
27003;SDS011;14546;47.590;19.022;2023-02-03T01:23:43;10.75;;;3.00;;
27003;SDS011;14546;47.590;19.022;2023-02-03T01:26:15;8.30;;;3.25;;
27003;SDS011;14546;47.590;19.022;2023-02-03T01:28:42;9.68;;;3.33;;
27003;SDS011;14546;47.590;19.022;2023-02-03T01:31:12;12.75;;;3.13;;
27003;SDS011;14546;47.590;19.022;2023-02-03T01:33:38;6.35;;;2.97;;
27003;SDS011;14546;47.590;19.022;2023-02-03T01:36:08;7.45;;;3.08;;
27003;SDS011;14546;47.590;19.022;2023-02-03T01:38:35;8.05;;;2.97;;
27003;SDS011;14546;47.590;19.022;2023-02-03T01:41:01;10.98;;;3.05;;
27003;SDS011;14546;47.590;19.022;2023-02-03T01:43:41;10.43;;;3.05;;
27003;SDS011;14546;47.590;19.022;2023-02-03T01:46:27;6.97;;;3.20;;
27003;SDS011;14546;47.590;19.022;2023-02-03T01:49:08;7.07;;;2.67;;
27003;SDS011;14546;47.590;19.022;2023-02-03T01:51:37;6.80;;;2.50;;
27003;SDS011;14546;47.590;19.022;2023-02-03T01:54:05;5.72;;;3.05;;
27003;SDS011;14546;47.590;19.022;2023-02-03T01:56:32;5.90;;;2.60;;
27003;SDS011;14546;47.590;19.022;2023-02-03T01:59:01;6.43;;;2.63;;
27003;SDS011;14546;47.590;19.022;2023-02-03T02:01:27;7.40;;;3.15;;
27003;SDS011;14546;47.590;19.022;2023-02-03T02:03:55;6.47;;;2.80;;
27003;SDS011;14546;47.590;19.022;2023-02-03T02:06:23;5.18;;;2.47;;
27003;SDS011;14546;47.590;19.022;2023-02-03T02:08:50;6.60;;;2.60;;
27003;SDS011;14546;47.590;19.022;2023-02-03T02:11:17;8.60;;;2.85;;
27003;SDS011;14546;47.590;19.022;2023-02-03T02:13:45;4.85;;;2.42;;
27003;SDS011;14546;47.590;19.022;2023-02-03T02:16:15;7.78;;;2.50;;
27003;SDS011;14546;47.590;19.022;2023-02-03T02:32:39;5.03;;;2.45;;
27003;SDS011;14546;47.590;19.022;2023-02-03T02:35:14;5.28;;;2.15;;
27003;SDS011;14546;47.590;19.022;2023-02-03T02:45:28;7.72;;;2.85;;
27003;SDS011;14546;47.590;19.022;2023-02-03T02:47:58;9.48;;;2.78;;
27003;SDS011;14546;47.590;19.022;2023-02-03T02:50:27;4.78;;;2.40;;
27003;SDS011;14546;47.590;19.022;2023-02-03T02:52:56;6.15;;;2.80;;
27003;SDS011;14546;47.590;19.022;2023-02-03T02:55:23;5.18;;;2.20;;
27003;SDS011;14546;47.590;19.022;2023-02-03T02:57:52;6.78;;;2.60;;
27003;SDS011;14546;47.590;19.022;2023-02-03T03:00:19;6.88;;;2.70;;
27003;SDS011;14546;47.590;19.022;2023-02-03T03:02:45;10.35;;;3.25;;
27003;SDS011;14546;47.590;19.022;2023-02-03T03:05:11;9.05;;;3.00;;
27003;SDS011;14546;47.590;19.022;2023-02-03T03:07:59;5.75;;;2.95;;
27003;SDS011;14546;47.590;19.022;2023-02-03T03:10:26;5.68;;;2.50;;
27003;SDS011;14546;47.590;19.022;2023-02-03T03:12:56;5.50;;;2.50;;
27003;SDS011;14546;47.590;19.022;2023-02-03T03:15:24;6.65;;;2.88;;
27003;SDS011;14546;47.590;19.022;2023-02-03T03:17:57;6.70;;;3.05;;
27003;SDS011;14546;47.590;19.022;2023-02-03T03:20:25;10.80;;;3.65;;
27003;SDS011;14546;47.590;19.022;2023-02-03T03:22:57;5.90;;;3.13;;
27003;SDS011;14546;47.590;19.022;2023-02-03T03:25:26;6.93;;;3.30;;
27003;SDS011;14546;47.590;19.022;2023-02-03T03:27:58;6.03;;;2.67;;
27003;SDS011;14546;47.590;19.022;2023-02-03T03:30:28;11.02;;;4.00;;
27003;SDS011;14546;47.590;19.022;2023-02-03T03:32:57;12.35;;;3.55;;
27003;SDS011;14546;47.590;19.022;2023-02-03T03:35:24;7.38;;;3.42;;
27003;SDS011;14546;47.590;19.022;2023-02-03T03:37:55;6.97;;;2.90;;
27003;SDS011;14546;47.590;19.022;2023-02-03T03:40:26;6.43;;;2.58;;
27003;SDS011;14546;47.590;19.022;2023-02-03T03:42:58;7.00;;;2.70;;
27003;SDS011;14546;47.590;19.022;2023-02-03T03:45:34;5.07;;;2.70;;
27003;SDS011;14546;47.590;19.022;2023-02-03T03:50:36;8.55;;;3.13;;
27003;SDS011;14546;47.590;19.022;2023-02-03T03:53:03;5.85;;;3.25;;
27003;SDS011;14546;47.590;19.022;2023-02-03T03:55:29;10.15;;;3.53;;
27003;SDS011;14546;47.590;19.022;2023-02-03T03:58:03;9.05;;;3.40;;
27003;SDS011;14546;47.590;19.022;2023-02-03T04:00:31;7.18;;;3.65;;
27003;SDS011;14546;47.590;19.022;2023-02-03T04:02:59;6.68;;;3.42;;
27003;SDS011;14546;47.590;19.022;2023-02-03T04:05:26;7.63;;;3.58;;
27003;SDS011;14546;47.590;19.022;2023-02-03T04:07:53;10.02;;;4.10;;
27003;SDS011;14546;47.590;19.022;2023-02-03T04:12:45;10.70;;;4.10;;
27003;SDS011;14546;47.590;19.022;2023-02-03T04:15:11;8.07;;;3.83;;
27003;SDS011;14546;47.590;19.022;2023-02-03T04:17:37;15.27;;;5.55;;
27003;SDS011;14546;47.590;19.022;2023-02-03T04:20:03;12.80;;;5.00;;
27003;SDS011;14546;47.590;19.022;2023-02-03T04:22:30;12.02;;;4.07;;
27003;SDS011;14546;47.590;19.022;2023-02-03T04:24:56;11.02;;;3.97;;
27003;SDS011;14546;47.590;19.022;2023-02-03T04:27:23;7.97;;;4.00;;
27003;SDS011;14546;47.590;19.022;2023-02-03T04:29:49;8.75;;;3.60;;
27003;SDS011;14546;47.590;19.022;2023-02-03T04:32:16;7.53;;;3.50;;
27003;SDS011;14546;47.590;19.022;2023-02-03T04:34:42;5.72;;;2.45;;
27003;SDS011;14546;47.590;19.022;2023-02-03T04:37:08;4.40;;;2.20;;
27003;SDS011;14546;47.590;19.022;2023-02-03T04:39:34;9.70;;;2.78;;
27003;SDS011;14546;47.590;19.022;2023-02-03T04:42:00;8.50;;;3.25;;
27003;SDS011;14546;47.590;19.022;2023-02-03T04:44:26;6.43;;;2.63;;
27003;SDS011;14546;47.590;19.022;2023-02-03T04:46:52;7.35;;;2.55;;
27003;SDS011;14546;47.590;19.022;2023-02-03T04:49:18;3.47;;;1.60;;
27003;SDS011;14546;47.590;19.022;2023-02-03T04:51:44;3.80;;;1.17;;
27003;SDS011;14546;47.590;19.022;2023-02-03T04:54:12;5.78;;;1.40;;
27003;SDS011;14546;47.590;19.022;2023-02-03T04:56:39;1.45;;;1.00;;
27003;SDS011;14546;47.590;19.022;2023-02-03T04:59:05;2.60;;;1.20;;
27003;SDS011;14546;47.590;19.022;2023-02-03T05:01:31;2.85;;;1.17;;
27003;SDS011;14546;47.590;19.022;2023-02-03T05:03:57;4.95;;;2.42;;
27003;SDS011;14546;47.590;19.022;2023-02-03T05:06:23;3.13;;;1.50;;
27003;SDS011;14546;47.590;19.022;2023-02-03T05:08:50;4.30;;;1.73;;
27003;SDS011;14546;47.590;19.022;2023-02-03T05:11:16;3.10;;;1.65;;
27003;SDS011;14546;47.590;19.022;2023-02-03T05:13:42;3.35;;;1.50;;
27003;SDS011;14546;47.590;19.022;2023-02-03T05:16:08;6.10;;;1.80;;
27003;SDS011;14546;47.590;19.022;2023-02-03T05:18:34;3.78;;;2.13;;
27003;SDS011;14546;47.590;19.022;2023-02-03T05:21:00;5.45;;;2.10;;
27003;SDS011;14546;47.590;19.022;2023-02-03T05:23:26;7.75;;;2.75;;
27003;SDS011;14546;47.590;19.022;2023-02-03T05:25:52;7.43;;;2.75;;
27003;SDS011;14546;47.590;19.022;2023-02-03T05:28:18;7.60;;;2.63;;
27003;SDS011;14546;47.590;19.022;2023-02-03T05:30:45;6.78;;;2.30;;
27003;SDS011;14546;47.590;19.022;2023-02-03T05:33:11;6.68;;;2.55;;
27003;SDS011;14546;47.590;19.022;2023-02-03T05:35:37;6.82;;;2.55;;
27003;SDS011;14546;47.590;19.022;2023-02-03T05:38:03;6.00;;;2.30;;
27003;SDS011;14546;47.590;19.022;2023-02-03T05:40:29;6.47;;;2.28;;
27003;SDS011;14546;47.590;19.022;2023-02-03T05:43:14;6.13;;;2.63;;
27003;SDS011;14546;47.590;19.022;2023-02-03T05:45:40;8.80;;;2.67;;
27003;SDS011;14546;47.590;19.022;2023-02-03T05:48:06;5.80;;;2.60;;
27003;SDS011;14546;47.590;19.022;2023-02-03T05:50:32;5.32;;;2.22;;
27003;SDS011;14546;47.590;19.022;2023-02-03T05:52:59;7.82;;;2.75;;
27003;SDS011;14546;47.590;19.022;2023-02-03T05:55:26;6.72;;;3.00;;
27003;SDS011;14546;47.590;19.022;2023-02-03T05:57:52;7.93;;;3.00;;
27003;SDS011;14546;47.590;19.022;2023-02-03T06:00:19;5.63;;;3.15;;
27003;SDS011;14546;47.590;19.022;2023-02-03T06:02:49;6.10;;;2.85;;
27003;SDS011;14546;47.590;19.022;2023-02-03T06:05:16;5.80;;;2.70;;
27003;SDS011;14546;47.590;19.022;2023-02-03T06:07:45;10.75;;;3.17;;
27003;SDS011;14546;47.590;19.022;2023-02-03T06:10:11;5.60;;;2.75;;
27003;SDS011;14546;47.590;19.022;2023-02-03T06:12:37;7.40;;;3.00;;
27003;SDS011;14546;47.590;19.022;2023-02-03T06:15:04;8.00;;;2.90;;
27003;SDS011;14546;47.590;19.022;2023-02-03T06:17:30;9.65;;;3.67;;
27003;SDS011;14546;47.590;19.022;2023-02-03T06:19:56;9.30;;;3.75;;
27003;SDS011;14546;47.590;19.022;2023-02-03T06:22:22;8.07;;;3.65;;
27003;SDS011;14546;47.590;19.022;2023-02-03T06:24:48;6.35;;;4.00;;
27003;SDS011;14546;47.590;19.022;2023-02-03T06:27:15;8.70;;;3.72;;
27003;SDS011;14546;47.590;19.022;2023-02-03T06:29:41;6.15;;;3.47;;
27003;SDS011;14546;47.590;19.022;2023-02-03T06:32:07;9.43;;;3.88;;
27003;SDS011;14546;47.590;19.022;2023-02-03T06:34:33;10.23;;;4.07;;
27003;SDS011;14546;47.590;19.022;2023-02-03T06:37:00;7.30;;;4.22;;
27003;SDS011;14546;47.590;19.022;2023-02-03T06:39:26;17.17;;;6.05;;
27003;SDS011;14546;47.590;19.022;2023-02-03T06:41:52;11.25;;;5.03;;
27003;SDS011;14546;47.590;19.022;2023-02-03T06:44:20;16.67;;;6.28;;
27003;SDS011;14546;47.590;19.022;2023-02-03T06:46:46;10.73;;;5.45;;
27003;SDS011;14546;47.590;19.022;2023-02-03T06:49:12;11.13;;;5.50;;
27003;SDS011;14546;47.590;19.022;2023-02-03T06:51:38;10.32;;;4.72;;
27003;SDS011;14546;47.590;19.022;2023-02-03T06:54:04;12.63;;;5.20;;
27003;SDS011;14546;47.590;19.022;2023-02-03T06:56:31;14.93;;;5.10;;
27003;SDS011;14546;47.590;19.022;2023-02-03T06:58:57;11.10;;;5.32;;
27003;SDS011;14546;47.590;19.022;2023-02-03T07:01:23;9.48;;;5.03;;
27003;SDS011;14546;47.590;19.022;2023-02-03T07:03:50;11.50;;;5.80;;
27003;SDS011;14546;47.590;19.022;2023-02-03T07:06:16;11.88;;;5.03;;
27003;SDS011;14546;47.590;19.022;2023-02-03T07:08:42;27.38;;;4.65;;
27003;SDS011;14546;47.590;19.022;2023-02-03T07:11:08;15.60;;;7.05;;
27003;SDS011;14546;47.590;19.022;2023-02-03T07:13:34;36.13;;;10.23;;
27003;SDS011;14546;47.590;19.022;2023-02-03T07:16:00;31.52;;;10.35;;
27003;SDS011;14546;47.590;19.022;2023-02-03T07:18:26;20.40;;;6.60;;
27003;SDS011;14546;47.590;19.022;2023-02-03T07:20:54;11.77;;;4.28;;
27003;SDS011;14546;47.590;19.022;2023-02-03T07:23:20;16.67;;;3.40;;
27003;SDS011;14546;47.590;19.022;2023-02-03T07:25:47;8.77;;;3.72;;
27003;SDS011;14546;47.590;19.022;2023-02-03T07:28:13;12.45;;;5.90;;
27003;SDS011;14546;47.590;19.022;2023-02-03T07:30:39;18.65;;;8.27;;
27003;SDS011;14546;47.590;19.022;2023-02-03T07:33:05;22.48;;;7.18;;
27003;SDS011;14546;47.590;19.022;2023-02-03T07:35:32;23.40;;;9.48;;
27003;SDS011;14546;47.590;19.022;2023-02-03T07:37:58;21.17;;;7.50;;
27003;SDS011;14546;47.590;19.022;2023-02-03T07:40:24;15.70;;;6.85;;
27003;SDS011;14546;47.590;19.022;2023-02-03T07:42:51;13.63;;;5.68;;
27003;SDS011;14546;47.590;19.022;2023-02-03T07:45:17;13.88;;;5.20;;
27003;SDS011;14546;47.590;19.022;2023-02-03T07:47:43;15.07;;;6.68;;
27003;SDS011;14546;47.590;19.022;2023-02-03T07:50:09;16.73;;;5.60;;
27003;SDS011;14546;47.590;19.022;2023-02-03T07:52:36;15.52;;;6.57;;
27003;SDS011;14546;47.590;19.022;2023-02-03T07:55:02;13.25;;;5.50;;
27003;SDS011;14546;47.590;19.022;2023-02-03T07:57:28;15.00;;;5.00;;
27003;SDS011;14546;47.590;19.022;2023-02-03T07:59:54;13.70;;;5.07;;
27003;SDS011;14546;47.590;19.022;2023-02-03T08:02:20;11.95;;;5.07;;
27003;SDS011;14546;47.590;19.022;2023-02-03T08:04:47;12.05;;;5.25;;
27003;SDS011;14546;47.590;19.022;2023-02-03T08:07:13;22.58;;;6.43;;
27003;SDS011;14546;47.590;19.022;2023-02-03T08:09:39;12.40;;;4.75;;
27003;SDS011;14546;47.590;19.022;2023-02-03T08:12:05;13.65;;;4.90;;
27003;SDS011;14546;47.590;19.022;2023-02-03T08:14:31;14.70;;;5.00;;
27003;SDS011;14546;47.590;19.022;2023-02-03T08:16:57;9.75;;;4.75;;
27003;SDS011;14546;47.590;19.022;2023-02-03T08:19:23;10.90;;;5.05;;
27003;SDS011;14546;47.590;19.022;2023-02-03T08:21:49;12.18;;;5.03;;
27003;SDS011;14546;47.590;19.022;2023-02-03T08:24:15;9.95;;;5.03;;
27003;SDS011;14546;47.590;19.022;2023-02-03T08:26:41;14.23;;;5.18;;
27003;SDS011;14546;47.590;19.022;2023-02-03T08:29:07;11.60;;;5.03;;
27003;SDS011;14546;47.590;19.022;2023-02-03T08:31:35;14.63;;;5.22;;
27003;SDS011;14546;47.590;19.022;2023-02-03T08:34:01;8.65;;;4.68;;
27003;SDS011;14546;47.590;19.022;2023-02-03T08:36:27;12.55;;;5.05;;
27003;SDS011;14546;47.590;19.022;2023-02-03T08:38:53;11.18;;;5.13;;
27003;SDS011;14546;47.590;19.022;2023-02-03T08:41:19;10.98;;;5.47;;
27003;SDS011;14546;47.590;19.022;2023-02-03T08:43:45;14.40;;;6.05;;
27003;SDS011;14546;47.590;19.022;2023-02-03T08:46:12;10.85;;;5.00;;
27003;SDS011;14546;47.590;19.022;2023-02-03T08:48:38;12.57;;;5.43;;
27003;SDS011;14546;47.590;19.022;2023-02-03T08:51:14;14.65;;;5.10;;
27003;SDS011;14546;47.590;19.022;2023-02-03T08:53:41;10.00;;;4.85;;
27003;SDS011;14546;47.590;19.022;2023-02-03T08:56:07;10.00;;;4.35;;
27003;SDS011;14546;47.590;19.022;2023-02-03T08:58:34;14.10;;;5.35;;
27003;SDS011;14546;47.590;19.022;2023-02-03T09:03:32;11.07;;;4.60;;
27003;SDS011;14546;47.590;19.022;2023-02-03T09:05:59;8.50;;;4.13;;
27003;SDS011;14546;47.590;19.022;2023-02-03T09:08:26;8.27;;;3.85;;
27003;SDS011;14546;47.590;19.022;2023-02-03T09:10:52;10.05;;;3.90;;
27003;SDS011;14546;47.590;19.022;2023-02-03T09:13:18;9.98;;;4.10;;
27003;SDS011;14546;47.590;19.022;2023-02-03T09:15:44;9.85;;;3.63;;
27003;SDS011;14546;47.590;19.022;2023-02-03T09:18:10;10.13;;;4.47;;
27003;SDS011;14546;47.590;19.022;2023-02-03T09:20:36;10.25;;;5.07;;
27003;SDS011;14546;47.590;19.022;2023-02-03T09:23:02;8.45;;;4.63;;
27003;SDS011;14546;47.590;19.022;2023-02-03T09:25:28;10.75;;;5.30;;
27003;SDS011;14546;47.590;19.022;2023-02-03T09:27:54;12.25;;;4.85;;
27003;SDS011;14546;47.590;19.022;2023-02-03T09:30:20;13.32;;;6.47;;
27003;SDS011;14546;47.590;19.022;2023-02-03T09:32:46;12.88;;;6.45;;
27003;SDS011;14546;47.590;19.022;2023-02-03T09:35:18;16.92;;;6.70;;
27003;SDS011;14546;47.590;19.022;2023-02-03T09:37:44;11.07;;;6.45;;
27003;SDS011;14546;47.590;19.022;2023-02-03T09:40:16;14.82;;;7.15;;
27003;SDS011;14546;47.590;19.022;2023-02-03T09:45:28;15.60;;;7.63;;
27003;SDS011;14546;47.590;19.022;2023-02-03T09:48:05;12.32;;;7.65;;
27003;SDS011;14546;47.590;19.022;2023-02-03T09:50:37;16.13;;;8.00;;
27003;SDS011;14546;47.590;19.022;2023-02-03T09:53:06;15.75;;;7.22;;
27003;SDS011;14546;47.590;19.022;2023-02-03T09:58:08;12.43;;;6.43;;
27003;SDS011;14546;47.590;19.022;2023-02-03T10:00:46;12.45;;;6.53;;
27003;SDS011;14546;47.590;19.022;2023-02-03T10:13:42;13.32;;;7.53;;
27003;SDS011;14546;47.590;19.022;2023-02-03T10:18:39;11.00;;;6.82;;
27003;SDS011;14546;47.590;19.022;2023-02-03T10:21:11;12.93;;;7.43;;
27003;SDS011;14546;47.590;19.022;2023-02-03T10:23:40;13.93;;;6.90;;
27003;SDS011;14546;47.590;19.022;2023-02-03T10:26:08;13.43;;;6.90;;
27003;SDS011;14546;47.590;19.022;2023-02-03T10:28:36;12.80;;;6.13;;
27003;SDS011;14546;47.590;19.022;2023-02-03T10:31:05;13.25;;;7.40;;
27003;SDS011;14546;47.590;19.022;2023-02-03T10:33:33;11.70;;;6.80;;
27003;SDS011;14546;47.590;19.022;2023-02-03T10:40:54;11.00;;;6.53;;
27003;SDS011;14546;47.590;19.022;2023-02-03T10:43:20;9.27;;;5.97;;
27003;SDS011;14546;47.590;19.022;2023-02-03T10:46:05;10.57;;;6.35;;
27003;SDS011;14546;47.590;19.022;2023-02-03T10:48:31;13.50;;;7.13;;
27003;SDS011;14546;47.590;19.022;2023-02-03T10:50:57;10.82;;;6.95;;
27003;SDS011;14546;47.590;19.022;2023-02-03T10:53:25;16.33;;;8.70;;
27003;SDS011;14546;47.590;19.022;2023-02-03T10:58:30;7.90;;;5.32;;
27003;SDS011;14546;47.590;19.022;2023-02-03T11:01:37;11.63;;;5.65;;
27003;SDS011;14546;47.590;19.022;2023-02-03T11:06:18;7.45;;;5.55;;
27003;SDS011;14546;47.590;19.022;2023-02-03T11:08:45;10.40;;;5.90;;
27003;SDS011;14546;47.590;19.022;2023-02-03T11:11:13;9.57;;;6.47;;
27003;SDS011;14546;47.590;19.022;2023-02-03T11:13:40;8.30;;;5.38;;
27003;SDS011;14546;47.590;19.022;2023-02-03T11:16:09;13.55;;;6.07;;
27003;SDS011;14546;47.590;19.022;2023-02-03T11:22:03;10.23;;;6.30;;
27003;SDS011;14546;47.590;19.022;2023-02-03T11:26:30;9.10;;;5.63;;
27003;SDS011;14546;47.590;19.022;2023-02-03T11:28:57;6.10;;;4.57;;
27003;SDS011;14546;47.590;19.022;2023-02-03T11:31:27;5.70;;;3.60;;
27003;SDS011;14546;47.590;19.022;2023-02-03T11:33:59;6.05;;;4.32;;
27003;SDS011;14546;47.590;19.022;2023-02-03T11:36:26;6.20;;;4.47;;
27003;SDS011;14546;47.590;19.022;2023-02-03T11:38:53;6.75;;;4.13;;
27003;SDS011;14546;47.590;19.022;2023-02-03T11:41:35;5.10;;;3.70;;
27003;SDS011;14546;47.590;19.022;2023-02-03T11:44:08;6.95;;;4.20;;
27003;SDS011;14546;47.590;19.022;2023-02-03T11:46:36;6.47;;;4.30;;
27003;SDS011;14546;47.590;19.022;2023-02-03T11:49:04;7.15;;;4.72;;
27003;SDS011;14546;47.590;19.022;2023-02-03T11:51:40;4.05;;;2.83;;
27003;SDS011;14546;47.590;19.022;2023-02-03T12:10:00;2.33;;;1.40;;
27003;SDS011;14546;47.590;19.022;2023-02-03T12:24:53;2.97;;;1.73;;
27003;SDS011;14546;47.590;19.022;2023-02-03T12:29:57;5.95;;;3.10;;
27003;SDS011;14546;47.590;19.022;2023-02-03T12:35:05;7.70;;;2.85;;
27003;SDS011;14546;47.590;19.022;2023-02-03T12:40:11;6.10;;;2.58;;
27003;SDS011;14546;47.590;19.022;2023-02-03T12:42:40;5.32;;;2.65;;
27003;SDS011;14546;47.590;19.022;2023-02-03T12:45:15;4.22;;;2.65;;
27003;SDS011;14546;47.590;19.022;2023-02-03T12:50:22;3.05;;;2.00;;
27003;SDS011;14546;47.590;19.022;2023-02-03T12:52:53;3.47;;;2.30;;
27003;SDS011;14546;47.590;19.022;2023-02-03T12:55:33;4.50;;;2.35;;
27003;SDS011;14546;47.590;19.022;2023-02-03T12:58:03;4.15;;;2.10;;
27003;SDS011;14546;47.590;19.022;2023-02-03T13:11:02;3.38;;;2.30;;
27003;SDS011;14546;47.590;19.022;2023-02-03T13:13:34;3.10;;;2.05;;
27003;SDS011;14546;47.590;19.022;2023-02-03T13:16:01;7.93;;;3.40;;
27003;SDS011;14546;47.590;19.022;2023-02-03T13:18:30;3.63;;;2.58;;
27003;SDS011;14546;47.590;19.022;2023-02-03T13:20:59;3.20;;;2.42;;
27003;SDS011;14546;47.590;19.022;2023-02-03T13:23:25;5.20;;;2.95;;
27003;SDS011;14546;47.590;19.022;2023-02-03T13:26:03;4.00;;;2.30;;
27003;SDS011;14546;47.590;19.022;2023-02-03T13:28:44;5.85;;;2.60;;
27003;SDS011;14546;47.590;19.022;2023-02-03T13:33:55;2.13;;;1.70;;
27003;SDS011;14546;47.590;19.022;2023-02-03T13:39:11;4.95;;;2.92;;
27003;SDS011;14546;47.590;19.022;2023-02-03T13:42:26;3.70;;;2.55;;
27003;SDS011;14546;47.590;19.022;2023-02-03T13:44:26;5.03;;;2.72;;
27003;SDS011;14546;47.590;19.022;2023-02-03T13:46:55;4.88;;;3.30;;
27003;SDS011;14546;47.590;19.022;2023-02-03T13:49:29;5.82;;;3.13;;
27003;SDS011;14546;47.590;19.022;2023-02-03T13:51:56;4.13;;;3.00;;
27003;SDS011;14546;47.590;19.022;2023-02-03T13:54:35;5.53;;;3.50;;
27003;SDS011;14546;47.590;19.022;2023-02-03T13:57:05;5.50;;;3.80;;
27003;SDS011;14546;47.590;19.022;2023-02-03T14:12:31;8.68;;;5.22;;
27003;SDS011;14546;47.590;19.022;2023-02-03T14:14:59;8.73;;;5.03;;
27003;SDS011;14546;47.590;19.022;2023-02-03T14:20:03;12.60;;;5.93;;
27003;SDS011;14546;47.590;19.022;2023-02-03T14:22:30;11.52;;;7.18;;
27003;SDS011;14546;47.590;19.022;2023-02-03T14:24:56;9.73;;;6.53;;
27003;SDS011;14546;47.590;19.022;2023-02-03T14:27:28;13.38;;;6.60;;
27003;SDS011;14546;47.590;19.022;2023-02-03T14:30:05;8.57;;;6.47;;
27003;SDS011;14546;47.590;19.022;2023-02-03T14:35:14;8.77;;;6.18;;
27003;SDS011;14546;47.590;19.022;2023-02-03T14:37:41;15.38;;;6.90;;
27003;SDS011;14546;47.590;19.022;2023-02-03T14:58:00;15.75;;;8.20;;
27003;SDS011;14546;47.590;19.022;2023-02-03T15:00:29;14.02;;;7.95;;
27003;SDS011;14546;47.590;19.022;2023-02-03T15:05:41;9.73;;;5.28;;
27003;SDS011;14546;47.590;19.022;2023-02-03T15:10:40;13.32;;;6.25;;
27003;SDS011;14546;47.590;19.022;2023-02-03T15:13:26;12.60;;;5.65;;
27003;SDS011;14546;47.590;19.022;2023-02-03T15:15:53;12.82;;;6.68;;
27003;SDS011;14546;47.590;19.022;2023-02-03T15:18:35;10.75;;;6.82;;
27003;SDS011;14546;47.590;19.022;2023-02-03T15:21:02;11.57;;;7.27;;
27003;SDS011;14546;47.590;19.022;2023-02-03T15:23:30;12.23;;;7.20;;
27003;SDS011;14546;47.590;19.022;2023-02-03T15:26:07;9.80;;;5.65;;
27003;SDS011;14546;47.590;19.022;2023-02-03T15:28:35;10.85;;;6.50;;
27003;SDS011;14546;47.590;19.022;2023-02-03T15:31:03;12.00;;;6.70;;
27003;SDS011;14546;47.590;19.022;2023-02-03T15:33:30;10.18;;;5.72;;
27003;SDS011;14546;47.590;19.022;2023-02-03T15:35:59;8.60;;;5.38;;
27003;SDS011;14546;47.590;19.022;2023-02-03T15:38:28;7.80;;;5.10;;
27003;SDS011;14546;47.590;19.022;2023-02-03T15:40:55;10.25;;;5.72;;
27003;SDS011;14546;47.590;19.022;2023-02-03T15:43:31;8.32;;;4.70;;
27003;SDS011;14546;47.590;19.022;2023-02-03T15:46:07;8.77;;;4.38;;
27003;SDS011;14546;47.590;19.022;2023-02-03T15:48:41;6.18;;;3.95;;
27003;SDS011;14546;47.590;19.022;2023-02-03T15:51:10;7.15;;;3.88;;
27003;SDS011;14546;47.590;19.022;2023-02-03T15:53:45;6.15;;;4.18;;
27003;SDS011;14546;47.590;19.022;2023-02-03T15:56:18;6.18;;;4.20;;
27003;SDS011;14546;47.590;19.022;2023-02-03T15:58:45;7.00;;;4.13;;
27003;SDS011;14546;47.590;19.022;2023-02-03T16:01:12;4.38;;;1.83;;
27003;SDS011;14546;47.590;19.022;2023-02-03T16:06:15;6.60;;;3.45;;
27003;SDS011;14546;47.590;19.022;2023-02-03T16:08:43;5.28;;;2.72;;
27003;SDS011;14546;47.590;19.022;2023-02-03T16:11:20;2.88;;;2.08;;
27003;SDS011;14546;47.590;19.022;2023-02-03T16:13:47;4.30;;;2.20;;
27003;SDS011;14546;47.590;19.022;2023-02-03T16:16:15;7.10;;;2.97;;
27003;SDS011;14546;47.590;19.022;2023-02-03T16:18:49;5.28;;;2.97;;
27003;SDS011;14546;47.590;19.022;2023-02-03T16:21:23;4.05;;;2.53;;
27003;SDS011;14546;47.590;19.022;2023-02-03T16:23:50;4.18;;;2.25;;
27003;SDS011;14546;47.590;19.022;2023-02-03T16:26:17;6.05;;;2.70;;
27003;SDS011;14546;47.590;19.022;2023-02-03T16:28:44;4.00;;;1.83;;
27003;SDS011;14546;47.590;19.022;2023-02-03T16:31:40;3.88;;;2.60;;
27003;SDS011;14546;47.590;19.022;2023-02-03T16:34:27;8.27;;;2.75;;
27003;SDS011;14546;47.590;19.022;2023-02-03T16:37:12;5.63;;;2.83;;
27003;SDS011;14546;47.590;19.022;2023-02-03T16:39:57;2.33;;;1.85;;
27003;SDS011;14546;47.590;19.022;2023-02-03T16:42:42;4.40;;;2.70;;
27003;SDS011;14546;47.590;19.022;2023-02-03T16:45:26;3.58;;;1.92;;
27003;SDS011;14546;47.590;19.022;2023-02-03T16:48:11;4.22;;;2.53;;
27003;SDS011;14546;47.590;19.022;2023-02-03T16:50:57;4.70;;;2.95;;
27003;SDS011;14546;47.590;19.022;2023-02-03T16:53:28;4.45;;;2.83;;
27003;SDS011;14546;47.590;19.022;2023-02-03T16:55:56;4.10;;;2.85;;
27003;SDS011;14546;47.590;19.022;2023-02-03T16:58:22;4.82;;;2.38;;
27003;SDS011;14546;47.590;19.022;2023-02-03T17:00:49;4.95;;;2.97;;
27003;SDS011;14546;47.590;19.022;2023-02-03T17:03:20;7.40;;;3.95;;
27003;SDS011;14546;47.590;19.022;2023-02-03T17:05:47;7.60;;;4.53;;
27003;SDS011;14546;47.590;19.022;2023-02-03T17:08:13;5.15;;;3.03;;
27003;SDS011;14546;47.590;19.022;2023-02-03T17:10:41;7.10;;;3.85;;
27003;SDS011;14546;47.590;19.022;2023-02-03T17:13:07;7.70;;;4.30;;
27003;SDS011;14546;47.590;19.022;2023-02-03T17:15:33;7.35;;;3.60;;
27003;SDS011;14546;47.590;19.022;2023-02-03T17:18:03;5.28;;;3.60;;